Time;durP1;ratioP1;P1;durP2;ratioP2;P2;SDS_P1;SDS_P2;PMS_P1;PMS_P2;Temp;Humidity;BMP_temperature;BMP_pressure;BME280_temperature;BME280_humidity;BME280_pressure;Samples;Min_cycle;Max_cycle;Signal;HPM_P1;HPM_P2
2021/01/07 00:00:18;;;;;;;62.45;35.10;;;22.50;34.30;;;;;;6089037;28;83914;-62
2021/01/07 00:03:19;;;;;;;55.17;32.58;;;22.40;34.40;;;;;;6099991;28;83653;-61
2021/01/07 00:06:20;;;;;;;55.60;34.90;;;22.40;34.60;;;;;;6096165;28;83173;-62
2021/01/07 00:09:20;;;;;;;54.20;33.05;;;22.50;34.60;;;;;;6093066;28;86043;-62
2021/01/07 00:12:21;;;;;;;61.42;36.83;;;22.40;34.60;;;;;;6098040;28;83238;-62
2021/01/07 00:15:21;;;;;;;60.53;34.00;;;22.40;34.40;;;;;;6100769;28;83521;-62
2021/01/07 00:18:22;;;;;;;55.95;33.63;;;22.40;34.50;;;;;;6101253;28;83130;-61
2021/01/07 00:21:22;;;;;;;57.13;32.85;;;22.40;34.40;;;;;;6077203;28;86561;-61
2021/01/07 00:24:23;;;;;;;61.22;35.80;;;22.40;34.80;;;;;;6117899;28;85142;-61
2021/01/07 00:27:23;;;;;;;64.90;35.45;;;22.40;34.50;;;;;;6086762;28;83563;-61
2021/01/07 00:30:24;;;;;;;59.05;35.88;;;22.40;34.50;;;;;;6114123;28;83604;-61
2021/01/07 00:33:24;;;;;;;63.38;36.10;;;22.40;34.40;;;;;;6098058;28;83440;-61
2021/01/07 00:36:25;;;;;;;56.22;33.95;;;22.40;34.20;;;;;;6101950;28;83375;-61
2021/01/07 00:39:25;;;;;;;63.92;34.63;;;22.40;34.60;;;;;;6100967;28;83515;-61
2021/01/07 00:42:26;;;;;;;64.10;35.78;;;22.30;34.50;;;;;;6099988;28;83372;-61
2021/01/07 00:45:26;;;;;;;61.47;36.45;;;22.40;34.70;;;;;;6111544;28;85889;-61
2021/01/07 00:48:27;;;;;;;61.55;35.50;;;22.30;34.80;;;;;;6114100;28;86202;-62
2021/01/07 00:51:27;;;;;;;64.05;35.92;;;22.30;34.80;;;;;;6100215;28;84297;-62
2021/01/07 00:54:29;;;;;;;65.78;36.00;;;22.30;34.90;;;;;;6101162;28;83265;-61
2021/01/07 00:57:29;;;;;;;58.00;35.53;;;22.30;34.90;;;;;;6100021;28;85984;-61
2021/01/07 01:00:30;;;;;;;65.03;36.60;;;22.30;34.80;;;;;;6092774;28;83262;-61
2021/01/07 01:03:30;;;;;;;65.53;37.25;;;22.30;34.80;;;;;;6092684;28;86751;-61
2021/01/07 01:06:31;;;;;;;65.00;35.97;;;22.30;34.50;;;;;;6099376;28;84256;-63
2021/01/07 01:09:31;;;;;;;65.38;37.88;;;22.30;34.60;;;;;;6094727;28;84545;-62
2021/01/07 01:12:32;;;;;;;67.13;37.05;;;22.30;34.50;;;;;;6099932;28;83339;-61
2021/01/07 01:15:32;;;;;;;56.47;33.80;;;22.30;34.50;;;;;;6093885;28;83558;-60
2021/01/07 01:18:33;;;;;;;54.33;33.78;;;22.30;34.50;;;;;;6100631;28;83129;-61
2021/01/07 01:21:33;;;;;;;56.55;32.95;;;22.30;34.30;;;;;;6092423;28;83927;-60
2021/01/07 01:24:34;;;;;;;57.35;33.22;;;22.30;34.40;;;;;;6099671;28;83037;-59
2021/01/07 01:27:34;;;;;;;53.13;30.92;;;22.30;34.50;;;;;;6112760;28;86353;-60
2021/01/07 01:30:35;;;;;;;53.70;31.63;;;22.30;34.50;;;;;;6099516;28;82948;-61
2021/01/07 01:33:35;;;;;;;53.05;31.15;;;22.30;34.50;;;;;;6084196;28;83399;-60
2021/01/07 01:36:36;;;;;;;53.00;29.73;;;22.30;34.60;;;;;;6097710;28;83779;-60
2021/01/07 01:39:36;;;;;;;56.97;32.22;;;22.30;34.60;;;;;;6087111;28;83324;-60
2021/01/07 01:42:37;;;;;;;51.60;30.75;;;22.30;34.20;;;;;;6102341;28;83685;-61
2021/01/07 01:45:37;;;;;;;57.17;31.60;;;22.30;34.30;;;;;;6093025;28;83125;-60
2021/01/07 01:48:38;;;;;;;50.90;30.85;;;22.30;34.50;;;;;;6094689;28;83764;-59
2021/01/07 01:51:38;;;;;;;54.22;31.67;;;22.30;34.60;;;;;;6091335;28;83889;-61
2021/01/07 01:54:39;;;;;;;53.92;32.33;;;22.20;34.40;;;;;;6100246;28;84001;-61
2021/01/07 01:57:39;;;;;;;50.47;30.15;;;22.30;34.60;;;;;;6098715;28;84193;-61
2021/01/07 02:00:40;;;;;;;51.30;31.42;;;22.30;34.50;;;;;;6097031;28;83470;-61
2021/01/07 02:03:41;;;;;;;54.90;31.42;;;22.20;34.50;;;;;;6092475;28;84666;-61
2021/01/07 02:06:41;;;;;;;50.60;30.35;;;22.20;34.50;;;;;;6099059;28;84096;-60
2021/01/07 02:09:42;;;;;;;54.38;30.95;;;22.20;34.50;;;;;;6086550;28;83705;-61
2021/01/07 02:12:43;;;;;;;55.38;30.52;;;22.20;34.50;;;;;;6095530;28;83309;-61
2021/01/07 02:15:43;;;;;;;53.50;30.98;;;22.20;34.30;;;;;;6097617;28;85837;-61
2021/01/07 02:18:44;;;;;;;55.35;31.98;;;22.20;34.30;;;;;;6095082;28;83291;-61
2021/01/07 02:21:44;;;;;;;52.05;30.27;;;22.20;34.30;;;;;;6096127;28;84810;-61
2021/01/07 02:24:45;;;;;;;52.85;30.13;;;22.20;34.20;;;;;;6093779;28;83835;-61
2021/01/07 02:27:45;;;;;;;52.45;30.27;;;22.20;34.40;;;;;;6097193;28;86727;-61
2021/01/07 02:30:46;;;;;;;50.83;31.80;;;22.20;34.30;;;;;;6090224;28;83275;-61
2021/01/07 02:33:46;;;;;;;53.88;32.20;;;22.20;34.20;;;;;;6097681;28;83220;-63
2021/01/07 02:36:47;;;;;;;54.45;31.33;;;22.20;34.20;;;;;;6100452;28;84024;-62
2021/01/07 02:39:47;;;;;;;55.55;32.65;;;22.20;34.10;;;;;;6099105;28;83455;-60
2021/01/07 02:42:48;;;;;;;51.97;31.50;;;22.20;33.90;;;;;;6096967;28;83223;-61
2021/01/07 02:45:48;;;;;;;52.25;31.15;;;22.20;34.20;;;;;;6097016;28;82927;-61
2021/01/07 02:48:49;;;;;;;56.13;31.40;;;22.20;34.20;;;;;;6092749;28;83480;-61
2021/01/07 02:51:49;;;;;;;56.70;32.88;;;22.20;34.00;;;;;;6091767;28;83221;-61
2021/01/07 02:54:50;;;;;;;58.33;32.35;;;22.20;34.10;;;;;;6102823;28;83510;-61
2021/01/07 02:57:50;;;;;;;56.38;32.20;;;22.20;33.70;;;;;;6095142;28;87557;-61
2021/01/07 03:00:51;;;;;;;56.03;32.42;;;22.20;34.00;;;;;;6093009;28;83353;-60
2021/01/07 03:03:51;;;;;;;52.92;31.63;;;22.20;34.00;;;;;;6100941;28;83254;-61
2021/01/07 03:06:52;;;;;;;56.38;31.92;;;22.20;34.30;;;;;;6097037;28;83143;-60
2021/01/07 03:09:52;;;;;;;54.47;31.55;;;22.20;34.00;;;;;;6101418;28;83734;-60
2021/01/07 03:12:53;;;;;;;55.08;32.03;;;22.10;34.70;;;;;;6102121;28;83288;-60
2021/01/07 03:15:53;;;;;;;53.22;31.30;;;22.10;34.10;;;;;;6100278;28;83065;-60
2021/01/07 03:18:54;;;;;;;54.88;32.00;;;22.10;34.20;;;;;;6101889;28;82954;-61
2021/01/07 03:21:54;;;;;;;54.30;31.92;;;22.10;34.00;;;;;;6091203;28;83980;-61
2021/01/07 03:24:55;;;;;;;61.97;34.97;;;22.10;34.10;;;;;;6101218;28;83507;-60
2021/01/07 03:27:55;;;;;;;56.88;32.13;;;22.10;34.10;;;;;;6101343;28;90941;-60
2021/01/07 03:30:56;;;;;;;59.85;32.08;;;22.10;34.10;;;;;;6099788;28;83256;-61
2021/01/07 03:33:56;;;;;;;55.45;32.72;;;22.10;34.10;;;;;;6092180;28;83193;-60
2021/01/07 03:36:57;;;;;;;56.63;32.92;;;22.10;33.90;;;;;;6103028;28;84056;-62
2021/01/07 03:39:57;;;;;;;53.03;32.15;;;22.10;34.00;;;;;;6092971;28;83699;-62
2021/01/07 03:42:58;;;;;;;55.83;33.38;;;22.10;34.20;;;;;;6101021;28;82699;-62
2021/01/07 03:45:58;;;;;;;51.45;30.75;;;22.10;34.50;;;;;;6101637;28;83095;-61
2021/01/07 03:48:59;;;;;;;51.88;31.58;;;22.00;34.30;;;;;;6095456;28;83643;-62
2021/01/07 03:51:59;;;;;;;50.88;29.25;;;22.10;34.50;;;;;;6084959;28;85999;-61
2021/01/07 03:55:00;;;;;;;48.40;28.42;;;22.10;34.50;;;;;;6093282;28;83483;-62
2021/01/07 03:58:00;;;;;;;48.80;29.13;;;22.10;34.70;;;;;;6103448;28;83951;-61
2021/01/07 04:01:01;;;;;;;50.70;28.38;;;22.10;34.70;;;;;;6113783;28;85519;-61
2021/01/07 04:04:01;;;;;;;48.28;28.38;;;22.10;35.40;;;;;;6099865;28;84645;-61
2021/01/07 04:07:02;;;;;;;48.55;28.35;;;22.10;35.00;;;;;;6099680;28;83014;-61
2021/01/07 04:10:02;;;;;;;47.40;27.83;;;22.10;35.00;;;;;;6101600;28;83620;-63
2021/01/07 04:13:03;;;;;;;48.20;27.73;;;22.10;34.90;;;;;;6077654;28;83359;-62
2021/01/07 04:16:03;;;;;;;46.28;27.27;;;22.10;35.00;;;;;;6102525;28;82908;-61
2021/01/07 04:19:04;;;;;;;44.88;27.60;;;22.10;34.90;;;;;;6099893;28;83935;-61
2021/01/07 04:22:04;;;;;;;48.80;28.75;;;22.10;34.90;;;;;;6096329;28;83498;-61
2021/01/07 04:25:05;;;;;;;45.22;26.35;;;22.10;35.70;;;;;;6091712;28;83729;-61
2021/01/07 04:28:05;;;;;;;46.38;26.23;;;22.10;35.00;;;;;;6096863;28;83669;-61
2021/01/07 04:31:05;;;;;;;45.28;27.20;;;22.10;35.20;;;;;;6098039;28;85245;-61
2021/01/07 04:34:06;;;;;;;44.55;26.42;;;22.10;35.10;;;;;;6100839;28;83231;-61
2021/01/07 04:37:06;;;;;;;43.95;26.05;;;22.00;35.00;;;;;;6096320;28;83520;-60
2021/01/07 04:40:07;;;;;;;48.17;27.67;;;22.10;35.10;;;;;;6101700;28;84144;-61
2021/01/07 04:43:07;;;;;;;42.38;25.75;;;22.10;35.10;;;;;;6073667;28;83590;-61
2021/01/07 04:46:08;;;;;;;47.55;26.20;;;22.00;35.10;;;;;;6105962;28;84461;-61
2021/01/07 04:49:08;;;;;;;44.58;24.77;;;22.00;35.20;;;;;;6100330;28;83283;-62
2021/01/07 04:52:09;;;;;;;46.95;26.20;;;22.00;35.90;;;;;;6098781;28;84179;-61
2021/01/07 04:55:09;;;;;;;46.25;27.30;;;22.10;34.80;;;;;;6097288;28;84386;-62
2021/01/07 04:58:10;;;;;;;45.42;27.90;;;22.10;34.60;;;;;;6097141;28;83559;-62
2021/01/07 05:01:10;;;;;;;48.13;26.73;;;22.20;33.70;;;;;;6098980;28;83970;-62
2021/01/07 05:04:11;;;;;;;46.08;27.23;;;22.20;33.70;;;;;;6098500;28;83358;-62
2021/01/07 05:07:11;;;;;;;44.63;26.67;;;22.30;33.70;;;;;;6099708;28;83534;-62
2021/01/07 05:10:12;;;;;;;46.28;27.85;;;22.30;34.30;;;;;;6099850;28;83400;-62
2021/01/07 05:13:12;;;;;;;47.15;26.48;;;22.30;33.40;;;;;;6099536;28;83926;-63
2021/01/07 05:16:13;;;;;;;46.67;27.50;;;22.40;33.30;;;;;;6094217;28;82932;-61
2021/01/07 05:19:13;;;;;;;45.88;27.05;;;22.40;33.20;;;;;;6100081;28;84529;-63
2021/01/07 05:22:14;;;;;;;42.33;25.60;;;22.40;33.20;;;;;;6114630;28;84112;-61
2021/01/07 05:25:14;;;;;;;39.70;25.52;;;22.50;33.20;;;;;;6098359;28;85976;-62
2021/01/07 05:28:15;;;;;;;43.33;24.77;;;22.50;33.10;;;;;;6092918;28;83146;-61
2021/01/07 05:31:15;;;;;;;44.33;26.10;;;22.50;33.20;;;;;;6092664;28;83364;-62
2021/01/07 05:34:16;;;;;;;46.40;24.80;;;22.60;33.20;;;;;;6090751;28;85559;-63
2021/01/07 05:37:16;;;;;;;41.92;24.05;;;22.60;34.60;;;;;;6098087;28;83760;-64
2021/01/07 05:40:17;;;;;;;34.67;20.90;;;22.70;34.60;;;;;;6099141;28;83769;-63
2021/01/07 05:43:18;;;;;;;32.30;18.77;;;22.60;35.20;;;;;;6100721;28;83569;-64
2021/01/07 05:46:18;;;;;;;28.48;17.63;;;22.60;36.20;;;;;;6097693;28;83040;-63
2021/01/07 05:49:19;;;;;;;25.63;14.88;;;22.60;37.10;;;;;;6100422;28;83925;-63
2021/01/07 05:52:21;;;;;;;26.17;14.95;;;22.60;37.50;;;;;;6089038;28;83352;-63
2021/01/07 05:55:21;;;;;;;26.10;14.75;;;22.60;37.90;;;;;;6094512;28;83233;-63
2021/01/07 05:58:22;;;;;;;23.13;13.93;;;22.70;38.50;;;;;;6096927;28;83374;-64
2021/01/07 06:01:22;;;;;;;25.83;15.07;;;22.70;39.20;;;;;;6097768;28;85163;-63
2021/01/07 06:04:23;;;;;;;22.67;13.88;;;22.70;39.20;;;;;;6097258;28;84796;-64
2021/01/07 06:07:23;;;;;;;26.25;13.88;;;22.70;39.60;;;;;;6097790;28;83710;-64
2021/01/07 06:10:24;;;;;;;21.30;13.55;;;22.70;40.00;;;;;;6093315;28;83436;-65
2021/01/07 06:13:24;;;;;;;23.35;13.90;;;22.80;40.70;;;;;;6096596;28;83138;-65
2021/01/07 06:16:25;;;;;;;24.23;13.25;;;22.80;40.70;;;;;;6099908;28;83499;-65
2021/01/07 06:19:26;;;;;;;29.08;13.73;;;22.80;41.40;;;;;;6096385;28;83796;-65
2021/01/07 06:22:26;;;;;;;24.10;14.57;;;22.80;41.50;;;;;;6097954;28;86875;-65
2021/01/07 06:25:27;;;;;;;27.90;14.75;;;22.80;41.90;;;;;;6095089;28;83471;-66
2021/01/07 06:28:27;;;;;;;21.63;13.10;;;22.90;42.10;;;;;;6103097;28;83387;-66
2021/01/07 06:31:28;;;;;;;23.52;13.68;;;22.90;42.10;;;;;;6102389;28;84060;-66
2021/01/07 06:34:28;;;;;;;25.98;14.13;;;22.80;42.00;;;;;;6103698;28;83565;-67
2021/01/07 06:37:29;;;;;;;25.98;14.60;;;22.90;42.20;;;;;;6099748;28;83304;-65
2021/01/07 06:40:29;;;;;;;23.55;14.27;;;22.90;42.20;;;;;;6099974;28;83258;-64
2021/01/07 06:43:30;;;;;;;25.30;13.38;;;22.90;42.70;;;;;;6103946;28;83262;-67
2021/01/07 06:46:30;;;;;;;23.08;11.93;;;22.90;42.50;;;;;;6102119;28;83479;-67
2021/01/07 06:49:31;;;;;;;22.60;12.63;;;22.90;42.60;;;;;;6100751;28;83847;-67
2021/01/07 06:52:31;;;;;;;23.80;12.85;;;22.80;43.20;;;;;;6097572;28;83430;-62
2021/01/07 06:55:32;;;;;;;19.90;12.02;;;22.90;42.40;;;;;;6095469;28;83286;-64
2021/01/07 06:58:32;;;;;;;23.02;12.73;;;22.90;42.70;;;;;;6098263;28;83925;-62
2021/01/07 07:01:33;;;;;;;23.08;12.68;;;22.80;42.50;;;;;;6096625;28;82889;-65
2021/01/07 07:04:33;;;;;;;22.20;12.68;;;22.80;42.20;;;;;;6102698;28;83202;-64
2021/01/07 07:07:34;;;;;;;27.77;13.95;;;22.90;42.00;;;;;;6094443;28;83211;-66
2021/01/07 07:10:34;;;;;;;24.83;14.18;;;22.90;41.70;;;;;;6097384;28;83206;-64
2021/01/07 07:13:35;;;;;;;24.30;14.30;;;22.80;41.90;;;;;;6096817;28;83790;-63
2021/01/07 07:16:35;;;;;;;25.00;14.15;;;22.80;41.40;;;;;;6097665;28;83059;-62
2021/01/07 07:19:36;;;;;;;28.58;13.93;;;22.70;41.60;;;;;;6092210;28;83498;-63
2021/01/07 07:22:36;;;;;;;23.15;12.52;;;22.80;41.30;;;;;;6098330;28;83417;-62
2021/01/07 07:25:37;;;;;;;22.50;12.85;;;22.70;41.20;;;;;;6097168;28;83168;-62
2021/01/07 07:28:38;;;;;;;24.98;13.20;;;22.70;41.10;;;;;;6094987;28;84618;-62
2021/01/07 07:31:38;;;;;;;39.50;14.52;;;22.70;41.00;;;;;;6099134;28;83225;-63
2021/01/07 07:34:38;;;;;;;48.13;14.13;;;22.70;41.30;;;;;;6089560;28;83803;-62
2021/01/07 07:37:39;;;;;;;41.80;14.55;;;22.70;42.00;;;;;;6089130;28;83145;-63
2021/01/07 07:40:40;;;;;;;35.65;13.30;;;22.60;41.80;;;;;;6101241;28;83342;-65
2021/01/07 07:43:40;;;;;;;27.15;12.73;;;22.60;41.80;;;;;;6093580;28;84175;-65
2021/01/07 07:46:41;;;;;;;29.67;13.45;;;22.60;41.70;;;;;;6099876;28;83764;-63
2021/01/07 07:49:41;;;;;;;34.80;13.13;;;22.60;41.50;;;;;;6090503;28;83210;-64
2021/01/07 07:52:43;;;;;;;24.80;11.88;;;22.60;41.40;;;;;;6095056;28;83985;-66
2021/01/07 07:55:43;;;;;;;26.55;12.57;;;22.60;41.20;;;;;;6096223;28;82981;-64
2021/01/07 07:58:44;;;;;;;23.08;10.82;;;22.60;41.30;;;;;;6097137;28;83685;-65
2021/01/07 08:01:44;;;;;;;24.48;11.15;;;22.60;41.20;;;;;;6092122;28;83300;-65
2021/01/07 08:04:45;;;;;;;24.05;10.73;;;22.60;41.40;;;;;;6093890;28;83917;-65
2021/01/07 08:07:45;;;;;;;19.15;10.25;;;22.60;41.70;;;;;;6087855;28;83412;-64
2021/01/07 08:10:46;;;;;;;19.13;9.18;;;22.60;41.60;;;;;;6089214;28;83261;-65
2021/01/07 08:13:46;;;;;;;17.20;9.98;;;22.60;41.60;;;;;;6102725;28;82980;-64
2021/01/07 08:16:47;;;;;;;16.25;9.02;;;22.60;41.20;;;;;;6096948;28;82964;-65
2021/01/07 08:19:47;;;;;;;19.35;8.65;;;22.60;41.20;;;;;;6101772;28;85148;-63
2021/01/07 08:22:48;;;;;;;18.38;9.15;;;22.60;41.10;;;;;;6098754;28;80675;-64
2021/01/07 08:25:48;;;;;;;13.70;8.18;;;22.60;40.80;;;;;;6096928;28;80722;-63
2021/01/07 08:28:49;;;;;;;17.30;8.93;;;22.60;40.80;;;;;;6098118;28;80827;-65
2021/01/07 08:31:49;;;;;;;13.82;8.27;;;22.60;40.50;;;;;;6094137;28;80391;-64
2021/01/07 08:34:50;;;;;;;14.45;7.90;;;22.50;40.40;;;;;;6091552;28;81159;-67
2021/01/07 08:37:50;;;;;;;12.93;7.65;;;22.50;40.30;;;;;;6098420;28;82221;-66
2021/01/07 08:40:51;;;;;;;13.77;8.15;;;22.50;40.70;;;;;;6103123;28;80407;-66
2021/01/07 08:43:51;;;;;;;16.90;8.73;;;22.50;40.70;;;;;;6097109;28;80837;-65
2021/01/07 08:46:53;;;;;;;13.75;7.55;;;22.60;40.70;;;;;;6102759;28;80610;-66
2021/01/07 08:49:53;;;;;;;13.13;7.90;;;22.50;41.00;;;;;;6097691;28;82433;-67
2021/01/07 08:52:54;;;;;;;14.40;7.30;;;22.50;40.80;;;;;;6084298;28;82081;-67
2021/01/07 08:55:54;;;;;;;11.82;7.00;;;22.50;40.60;;;;;;6102455;28;80939;-68
2021/01/07 08:58:55;;;;;;;15.00;7.80;;;22.60;40.80;;;;;;6099282;28;80240;-66
2021/01/07 09:01:56;;;;;;;12.27;7.30;;;22.60;40.80;;;;;;6101119;28;80744;-65
2021/01/07 09:04:56;;;;;;;13.10;7.45;;;22.50;40.80;;;;;;6099432;28;80695;-64
2021/01/07 09:07:57;;;;;;;13.65;6.60;;;22.60;40.60;;;;;;6094759;28;80483;-66
2021/01/07 09:10:57;;;;;;;12.30;6.88;;;22.50;40.50;;;;;;6097943;28;80948;-65
2021/01/07 09:13:58;;;;;;;15.85;7.38;;;22.60;40.70;;;;;;6098245;28;82953;-65
2021/01/07 09:16:58;;;;;;;15.40;7.75;;;22.50;40.70;;;;;;6095934;28;80377;-65
2021/01/07 09:19:58;;;;;;;12.13;6.82;;;22.50;40.30;;;;;;6098094;28;80582;-64
2021/01/07 09:22:59;;;;;;;16.23;6.90;;;22.50;40.60;;;;;;6089365;28;80874;-64
2021/01/07 09:25:59;;;;;;;13.35;6.13;;;22.50;40.50;;;;;;6095752;28;82240;-63
2021/01/07 09:29:00;;;;;;;11.43;6.68;;;22.50;40.70;;;;;;6094447;28;80365;-64
2021/01/07 09:32:01;;;;;;;14.07;7.55;;;22.40;40.70;;;;;;6092730;28;81415;-65
2021/01/07 09:35:01;;;;;;;12.43;7.60;;;22.40;40.50;;;;;;6111399;28;82426;-64
2021/01/07 09:38:02;;;;;;;15.25;7.10;;;22.40;40.80;;;;;;6099040;28;80800;-64
2021/01/07 09:41:02;;;;;;;11.65;6.75;;;22.50;40.60;;;;;;6094227;28;81493;-63
2021/01/07 09:44:03;;;;;;;11.07;6.30;;;22.50;40.60;;;;;;6102935;28;80733;-64
2021/01/07 09:47:03;;;;;;;12.45;6.03;;;22.50;40.30;;;;;;6086368;28;81549;-64
2021/01/07 09:50:04;;;;;;;12.65;6.40;;;22.50;40.60;;;;;;6093178;28;80741;-63
2021/01/07 09:53:04;;;;;;;10.55;6.20;;;22.40;40.20;;;;;;6100940;28;81193;-66
2021/01/07 09:56:05;;;;;;;8.88;5.93;;;22.50;40.40;;;;;;6099920;28;80548;-64
2021/01/07 09:59:05;;;;;;;10.48;5.72;;;22.50;40.50;;;;;;6100607;28;81685;-63
2021/01/07 10:02:06;;;;;;;9.88;5.75;;;22.60;40.30;;;;;;6094212;28;80679;-63
2021/01/07 10:05:07;;;;;;;8.75;5.13;;;22.60;40.20;;;;;;6097132;28;80690;-64
2021/01/07 10:08:07;;;;;;;8.57;4.97;;;22.70;39.90;;;;;;6091258;28;81079;-64
2021/01/07 10:11:08;;;;;;;7.55;4.65;;;22.80;39.60;;;;;;6097547;28;82261;-64
2021/01/07 10:14:08;;;;;;;7.25;4.32;;;22.90;39.30;;;;;;6096120;28;81507;-66
2021/01/07 10:17:09;;;;;;;7.85;4.53;;;23.00;39.20;;;;;;6099045;28;80885;-64
2021/01/07 10:20:09;;;;;;;6.22;4.38;;;23.00;38.90;;;;;;6104252;28;80845;-63
2021/01/07 10:23:10;;;;;;;7.22;4.18;;;23.00;38.80;;;;;;6105111;28;80763;-66
2021/01/07 10:26:11;;;;;;;8.27;4.60;;;23.00;38.70;;;;;;6098704;28;82641;-65
2021/01/07 10:29:11;;;;;;;6.60;4.18;;;23.10;38.20;;;;;;6106433;28;80657;-66
2021/01/07 10:32:12;;;;;;;10.43;4.60;;;23.00;37.90;;;;;;6101338;28;80950;-66
2021/01/07 10:35:12;;;;;;;8.68;4.35;;;23.10;37.70;;;;;;6104755;28;80718;-66
2021/01/07 10:38:13;;;;;;;9.85;4.40;;;23.10;37.40;;;;;;6108030;28;80643;-66
2021/01/07 10:41:14;;;;;;;6.75;4.20;;;23.10;37.30;;;;;;6100244;28;80777;-65
2021/01/07 10:44:14;;;;;;;6.18;4.25;;;23.10;36.90;;;;;;6104663;28;82434;-68
2021/01/07 10:47:15;;;;;;;7.50;4.40;;;23.10;36.50;;;;;;6105477;28;80944;-68
2021/01/07 10:50:17;;;;;;;6.30;4.10;;;23.10;36.30;;;;;;6100638;28;80560;-68
2021/01/07 10:53:18;;;;;;;9.20;4.70;;;23.10;36.40;;;;;;6105049;28;81179;-69
2021/01/07 10:56:18;;;;;;;6.75;4.63;;;23.10;36.20;;;;;;6104713;28;80761;-67
2021/01/07 10:59:19;;;;;;;7.68;4.80;;;23.20;37.20;;;;;;6102790;28;81479;-68
2021/01/07 11:02:19;;;;;;;10.25;5.80;;;23.20;37.80;;;;;;6097491;28;80243;-68
2021/01/07 11:05:20;;;;;;;9.48;5.00;;;23.20;37.80;;;;;;6109623;28;81872;-67
2021/01/07 11:08:20;;;;;;;8.55;5.43;;;23.20;36.90;;;;;;6097662;28;81081;-68
2021/01/07 11:11:21;;;;;;;9.73;5.80;;;23.30;36.80;;;;;;6104248;28;82711;-68
2021/01/07 11:14:21;;;;;;;10.10;5.10;;;23.30;36.80;;;;;;6095978;28;80208;-68
2021/01/07 11:17:22;;;;;;;10.68;5.18;;;23.40;36.90;;;;;;6094910;28;81651;-67
2021/01/07 11:20:22;;;;;;;9.18;5.15;;;23.40;37.40;;;;;;6096274;28;81087;-68
2021/01/07 11:23:23;;;;;;;8.60;4.95;;;23.40;37.40;;;;;;6100313;28;81048;-68
2021/01/07 11:26:25;;;;;;;7.85;4.97;;;23.40;37.40;;;;;;6097392;28;80774;-67
2021/01/07 11:29:25;;;;;;;8.88;5.03;;;23.40;38.00;;;;;;6100800;28;80845;-68
2021/01/07 11:32:26;;;;;;;7.47;4.70;;;23.40;38.10;;;;;;6096938;28;80580;-67
2021/01/07 11:35:26;;;;;;;7.15;4.35;;;23.40;37.90;;;;;;6095427;28;80488;-68
2021/01/07 11:38:27;;;;;;;6.95;4.18;;;23.50;37.90;;;;;;6097441;28;82823;-68
2021/01/07 11:41:27;;;;;;;7.70;4.80;;;23.50;37.80;;;;;;6098618;28;80666;-69
2021/01/07 11:44:28;;;;;;;8.35;4.43;;;23.50;37.50;;;;;;6098139;28;81462;-68
2021/01/07 11:47:28;;;;;;;8.57;4.75;;;23.50;37.70;;;;;;6099594;28;80645;-69
2021/01/07 11:50:29;;;;;;;8.85;4.95;;;23.50;37.60;;;;;;6102881;28;80868;-67
2021/01/07 11:53:29;;;;;;;7.95;5.07;;;23.40;37.90;;;;;;6098710;28;81220;-66
2021/01/07 11:56:30;;;;;;;8.35;4.40;;;23.40;37.80;;;;;;6103998;28;80719;-67
2021/01/07 11:59:31;;;;;;;7.68;4.07;;;23.40;37.90;;;;;;6115003;28;82452;-67
2021/01/07 12:02:31;;;;;;;7.07;3.92;;;23.30;37.80;;;;;;6100326;28;80416;-68
2021/01/07 12:05:32;;;;;;;9.85;4.45;;;23.20;37.10;;;;;;6101827;28;80707;-68
2021/01/07 12:08:32;;;;;;;7.22;4.38;;;23.20;37.30;;;;;;6094797;28;80682;-69
2021/01/07 12:11:33;;;;;;;6.32;4.38;;;23.30;36.90;;;;;;6101457;28;80822;-73
2021/01/07 12:14:33;;;;;;;6.05;3.70;;;23.20;36.60;;;;;;6098827;28;80665;-68
2021/01/07 12:17:34;;;;;;;9.60;3.72;;;23.20;36.50;;;;;;6095384;28;80638;-68
2021/01/07 12:20:35;;;;;;;5.47;3.53;;;23.20;36.50;;;;;;6092602;28;80243;-69
2021/01/07 12:23:35;;;;;;;8.48;4.30;;;23.20;36.30;;;;;;6099160;28;80644;-68
2021/01/07 12:26:36;;;;;;;7.80;3.70;;;23.20;36.30;;;;;;6098103;28;80623;-68
2021/01/07 12:29:36;;;;;;;8.65;3.47;;;23.20;35.90;;;;;;6100822;28;80916;-68
2021/01/07 12:32:37;;;;;;;7.05;3.83;;;23.20;35.60;;;;;;6093426;28;81703;-67
2021/01/07 12:35:37;;;;;;;6.97;3.85;;;23.20;35.60;;;;;;6094034;28;80589;-68
2021/01/07 12:38:38;;;;;;;9.13;3.92;;;23.20;35.20;;;;;;6092038;28;81471;-69
2021/01/07 12:41:38;;;;;;;6.22;3.58;;;23.20;35.80;;;;;;6093567;28;80430;-69
2021/01/07 12:44:39;;;;;;;4.38;3.33;;;23.20;35.00;;;;;;6103913;28;80920;-67
2021/01/07 12:47:39;;;;;;;5.90;3.60;;;23.20;34.90;;;;;;6096031;28;81445;-68
2021/01/07 12:50:40;;;;;;;8.10;3.88;;;23.10;34.90;;;;;;6096242;28;82242;-69
2021/01/07 12:53:41;;;;;;;9.35;3.97;;;23.10;34.90;;;;;;6090962;28;80682;-68
2021/01/07 12:56:41;;;;;;;8.13;3.97;;;23.10;34.70;;;;;;6103544;28;80673;-68
2021/01/07 12:59:42;;;;;;;13.18;4.25;;;23.10;34.80;;;;;;6100056;28;81683;-67
2021/01/07 13:02:43;;;;;;;6.05;3.60;;;23.10;34.50;;;;;;6101708;28;80741;-67
2021/01/07 13:05:43;;;;;;;11.57;3.88;;;23.10;34.60;;;;;;6099587;28;80733;-67
2021/01/07 13:08:44;;;;;;;8.05;3.72;;;23.00;34.50;;;;;;6102065;28;80616;-67
2021/01/07 13:11:44;;;;;;;7.18;4.07;;;23.00;34.10;;;;;;6096731;28;80511;-67
2021/01/07 13:14:45;;;;;;;7.72;4.63;;;23.00;34.40;;;;;;6101552;28;80661;-67
2021/01/07 13:17:45;;;;;;;6.95;4.30;;;23.00;34.20;;;;;;6100731;28;80588;-64
2021/01/07 13:20:46;;;;;;;12.02;5.68;;;23.00;34.10;;;;;;6099953;28;80770;-66
2021/01/07 13:23:46;;;;;;;17.25;9.40;;;23.00;34.20;;;;;;6101550;28;81889;-65
2021/01/07 13:26:47;;;;;;;18.30;10.38;;;23.00;34.20;;;;;;6090878;28;81638;-66
2021/01/07 13:29:47;;;;;;;16.73;10.63;;;23.00;34.10;;;;;;6098932;28;83583;-66
2021/01/07 13:32:48;;;;;;;16.83;10.57;;;23.00;34.20;;;;;;6100061;28;83231;-67
2021/01/07 13:35:51;;;;;;;15.23;9.48;;;23.00;34.40;;;;;;6098815;28;83390;-64
2021/01/07 13:38:52;;;;;;;13.90;8.80;;;23.00;34.50;;;;;;6100634;28;83132;-67
2021/01/07 13:41:52;;;;;;;13.73;7.75;;;23.00;34.40;;;;;;6115776;28;81618;-68
2021/01/07 13:44:53;;;;;;;13.30;7.40;;;23.00;34.80;;;;;;6097547;28;80524;-68
2021/01/07 13:47:53;;;;;;;13.73;7.35;;;23.00;34.70;;;;;;6101257;28;80554;-67
2021/01/07 13:50:54;;;;;;;9.68;6.38;;;23.00;35.40;;;;;;6094107;28;80271;-63
2021/01/07 13:53:54;;;;;;;9.35;6.32;;;23.00;34.60;;;;;;6101795;28;81051;-66
2021/01/07 13:56:55;;;;;;;11.68;6.80;;;23.00;35.60;;;;;;6102779;28;83973;-66
2021/01/07 13:59:55;;;;;;;10.05;5.95;;;23.00;34.70;;;;;;6104763;28;80524;-66
2021/01/07 14:02:56;;;;;;;9.82;5.00;;;22.90;34.80;;;;;;6102353;28;81420;-63
2021/01/07 14:05:56;;;;;;;10.18;5.10;;;23.00;35.10;;;;;;6101968;28;80571;-65
2021/01/07 14:08:57;;;;;;;7.25;4.72;;;22.90;35.30;;;;;;6096097;28;80437;-65
2021/01/07 14:11:57;;;;;;;8.48;5.25;;;22.90;35.40;;;;;;6097881;28;80538;-65
2021/01/07 14:14:58;;;;;;;9.15;5.50;;;22.80;35.30;;;;;;6095881;28;80917;-66
2021/01/07 14:17:59;;;;;;;7.05;4.55;;;22.80;35.40;;;;;;6088519;28;80661;-65
2021/01/07 14:20:59;;;;;;;9.32;5.28;;;22.90;35.50;;;;;;6095344;28;81052;-65
2021/01/07 14:24:00;;;;;;;13.05;5.88;;;22.80;35.50;;;;;;6102365;28;80370;-67
2021/01/07 14:27:00;;;;;;;12.48;6.40;;;22.80;35.40;;;;;;6103106;28;80573;-65
2021/01/07 14:30:01;;;;;;;9.52;5.63;;;22.80;35.70;;;;;;6097106;28;82002;-64
2021/01/07 14:33:01;;;;;;;9.43;5.63;;;22.80;35.20;;;;;;6095892;28;80686;-64
2021/01/07 14:36:02;;;;;;;8.52;4.93;;;22.70;35.20;;;;;;6088671;28;80425;-66
2021/01/07 14:39:02;;;;;;;9.45;5.05;;;22.80;35.50;;;;;;6093657;28;80822;-70
2021/01/07 14:42:03;;;;;;;8.18;5.15;;;22.80;35.10;;;;;;6115145;28;81906;-69
2021/01/07 14:45:03;;;;;;;9.45;5.30;;;22.90;35.10;;;;;;6103401;28;80513;-69
2021/01/07 14:48:04;;;;;;;10.32;5.72;;;22.90;35.00;;;;;;6100390;28;81330;-69
2021/01/07 14:51:08;;;;;;;11.40;6.18;;;23.00;35.00;;;;;;6101506;28;80602;-69
2021/01/07 14:54:08;;;;;;;13.23;5.85;;;23.00;35.00;;;;;;6099848;28;85107;-68
2021/01/07 14:57:09;;;;;;;8.48;5.68;;;23.00;34.90;;;;;;6104498;28;81187;-69
2021/01/07 15:00:10;;;;;;;11.63;6.07;;;23.00;34.70;;;;;;6105593;28;81378;-69
2021/01/07 15:03:10;;;;;;;8.45;5.80;;;23.10;34.70;;;;;;6090544;28;80363;-68
2021/01/07 15:06:11;;;;;;;10.45;5.78;;;23.10;34.70;;;;;;6107204;28;80956;-67
2021/01/07 15:09:11;;;;;;;11.63;6.70;;;23.10;34.60;;;;;;6104789;28;80879;-67
2021/01/07 15:12:12;;;;;;;10.98;5.85;;;23.10;34.50;;;;;;6103710;28;80549;-67
2021/01/07 15:15:12;;;;;;;10.00;5.78;;;23.20;34.40;;;;;;6103037;28;81015;-68
2021/01/07 15:18:13;;;;;;;8.90;5.47;;;23.10;34.20;;;;;;6103760;28;80644;-66
2021/01/07 15:21:17;;;;;;;10.27;6.10;;;23.20;34.20;;;;;;6106110;28;80603;-75